Time;durP1;ratioP1;P1;durP2;ratioP2;P2;SDS_P1;SDS_P2;PMS_P1;PMS_P2;Temp;Humidity;BMP_temperature;BMP_pressure;BME280_temperature;BME280_humidity;BME280_pressure;Samples;Min_cycle;Max_cycle;Signal;HPM_P1;HPM_P2
2022/06/11 00:02:02;;;;;;;3.97;1.90;;;;;;;-146.64;100.00;113059.81;5053702;28;20032;-83
2022/06/11 00:04:31;;;;;;;6.65;2.65;;;;;;;-146.64;100.00;113326.63;5040421;28;20033;-83
2022/06/11 00:07:03;;;;;;;5.03;1.88;;;;;;;-146.64;100.00;113326.63;5043800;28;20106;-83
2022/06/11 00:09:29;;;;;;;5.43;1.98;;;;;;;-146.64;100.00;113326.63;5032516;28;20024;-83
2022/06/11 00:11:55;;;;;;;5.00;2.60;;;;;;;-146.64;100.00;112526.16;5019537;28;20094;-82
2022/06/11 00:14:23;;;;;;;8.00;2.60;;;;;;;-146.64;100.00;112526.16;5051576;28;20488;-83
2022/06/11 00:16:49;;;;;;;10.75;2.50;;;;;;;-146.64;100.00;113326.63;5050771;28;20024;-83
2022/06/11 00:19:15;;;;;;;3.45;2.22;;;;;;;-146.64;100.00;113059.81;5066644;28;20030;-83
2022/06/11 00:21:43;;;;;;;5.30;1.83;;;;;;;-146.64;100.00;113059.81;5035486;28;20041;-83
2022/06/11 00:24:10;;;;;;;4.35;1.92;;;;;;;-146.64;100.00;113326.63;5069052;28;20086;-83
2022/06/11 00:26:36;;;;;;;5.63;2.03;;;;;;;-146.64;100.00;113860.38;5052388;28;20063;-82
2022/06/11 00:29:01;;;;;;;7.23;2.47;;;;;;;-146.64;100.00;113860.38;5065262;28;20060;-82
2022/06/11 00:31:27;;;;;;;6.93;2.43;;;;;;;-146.64;100.00;114127.28;5050719;28;20033;-82
2022/06/11 00:33:52;;;;;;;6.23;2.17;;;;;;;-146.64;100.00;113860.38;5024423;28;20037;-83
2022/06/11 00:36:18;;;;;;;7.33;3.07;;;;;;;-146.64;100.00;114127.28;5050068;28;20047;-82
2022/06/11 00:38:44;;;;;;;7.63;2.00;;;;;;;-146.64;100.00;114127.28;5060940;28;20033;-83
2022/06/11 00:41:10;;;;;;;5.18;2.58;;;;;;;-146.64;100.00;114661.13;5048788;28;20029;-83
2022/06/11 00:43:39;;;;;;;8.07;2.67;;;;;;;-146.64;100.00;114661.13;5067746;28;20079;-82
2022/06/11 00:46:44;;;;;;;5.15;2.20;;;;;;;-146.64;100.00;115462.00;5056840;28;20082;-83
2022/06/11 00:49:17;;;;;;;8.35;2.47;;;;;;;-146.64;100.00;115462.00;5048682;28;20021;-82
2022/06/11 00:51:43;;;;;;;4.03;2.33;;;;;;;-146.64;100.00;115462.00;5047318;28;20025;-82
2022/06/11 00:54:14;;;;;;;8.97;1.87;;;;;;;-146.64;100.00;115729.00;5048651;28;20047;-82
2022/06/11 00:56:49;;;;;;;5.95;2.05;;;;;;;-146.64;100.00;115729.00;5034528;28;20395;-82
2022/06/11 00:59:19;;;;;;;9.27;2.22;;;;;;;-146.64;100.00;115462.00;5031340;28;20033;-83
2022/06/11 01:01:47;;;;;;;5.03;1.92;;;;;;;-146.64;100.00;115462.00;5064391;28;20128;-82
2022/06/11 01:05:02;;;;;;;9.35;2.28;;;;;;;-146.64;100.00;115195.03;5042079;28;20443;-82
2022/06/11 01:07:34;;;;;;;4.78;2.00;;;;;;;-146.64;100.00;115195.03;5059020;28;20488;-82
2022/06/11 01:10:08;;;;;;;10.55;2.63;;;;;;;-146.64;100.00;114928.06;5070301;28;20476;-83
2022/06/11 01:12:46;;;;;;;9.65;2.30;;;;;;;-146.64;100.00;114928.06;5049023;28;20028;-82
2022/06/11 01:15:24;;;;;;;4.82;2.15;;;;;;;-146.64;100.00;114394.19;5031625;28;20040;-82
2022/06/11 01:18:14;;;;;;;6.50;1.70;;;;;;;-146.64;100.00;113059.81;5041675;28;20086;-82
2022/06/11 01:20:59;;;;;;;6.88;2.10;;;;;;;-146.64;100.00;111992.59;5049550;28;20052;-83
2022/06/11 01:23:39;;;;;;;3.20;1.42;;;;;;;-146.64;100.00;111992.59;5067548;28;20036;-82
2022/06/11 01:26:31;;;;;;;7.65;2.05;;;;;;;-146.64;100.00;110392.34;5052174;28;20111;-82
2022/06/11 01:29:25;;;;;;;8.80;1.85;;;;;;;-146.64;100.00;108792.72;5068337;28;20033;-82
2022/06/11 01:31:58;;;;;;;7.63;2.03;;;;;;;-146.64;100.00;109059.28;5050466;28;20032;-82
2022/06/11 01:34:39;;;;;;;4.15;1.92;;;;;;;-146.64;100.00;108259.63;5053471;28;20059;-82
2022/06/11 01:37:08;;;;;;;6.38;1.95;;;;;;;-146.64;100.00;106660.84;5054989;28;20107;-82
2022/06/11 01:39:48;;;;;;;7.68;1.70;;;;;;;-146.64;100.00;106128.03;5054031;28;20024;-83
2022/06/11 01:42:23;;;;;;;10.30;2.58;;;;;;;-146.64;100.00;105329.00;5050506;28;20377;-83
2022/06/11 01:45:04;;;;;;;7.88;2.25;;;;;;;-146.64;100.00;105329.00;5053645;28;20119;-82
2022/06/11 01:47:32;;;;;;;8.43;2.00;;;;;;;-146.64;100.00;105062.66;5055127;28;20044;-82
2022/06/11 01:49:58;;;;;;;9.63;1.77;;;;;;;-146.64;100.00;104530.09;5054918;28;20551;-82
2022/06/11 01:52:42;;;;;;;9.30;2.13;;;;;;;-146.64;100.00;105062.66;5072514;28;20043;-83
2022/06/11 01:55:19;;;;;;;10.93;2.20;;;;;;;-146.64;100.00;105329.00;5054994;28;20072;-82
2022/06/11 01:57:51;;;;;;;6.60;2.33;;;;;;;-146.64;100.00;106128.03;5047165;28;20028;-82
2022/06/11 02:00:20;;;;;;;7.18;2.08;;;;;;;-146.64;100.00;106128.03;5071049;28;20464;-82
2022/06/11 02:02:55;;;;;;;4.60;2.20;;;;;;;-146.64;100.00;105861.69;5066650;28;20468;-82
2022/06/11 02:05:23;;;;;;;11.82;2.00;;;;;;;-146.64;100.00;106128.03;5067521;28;20056;-83
2022/06/11 02:08:00;;;;;;;7.25;2.22;;;;;;;-146.64;100.00;105062.66;5036650;28;20028;-82
2022/06/11 02:10:36;;;;;;;26.05;3.17;;;;;;;-146.64;100.00;102932.75;5073232;28;20507;-82
2022/06/11 02:13:08;;;;;;;9.45;2.20;;;;;;;-146.64;100.00;101602.13;5053733;28;20028;-82
2022/06/11 02:15:37;;;;;;;11.35;2.47;;;;;;;-146.64;100.00;100803.97;5067789;28;20025;-82
2022/06/11 02:18:08;;;;;;;11.32;2.67;;;;;;;-146.64;100.00;100271.94;5041786;28;20025;-83
2022/06/11 02:20:44;;;;;;;9.05;2.20;;;;;;;-146.64;100.00;95486.84;5049237;28;20174;-82
2022/06/11 02:23:16;;;;;;;11.88;2.40;;;;;;;-146.64;100.00;95221.19;5037251;28;20024;-83
2022/06/11 02:25:50;;;;;;;16.25;2.53;;;;;;;-146.64;100.00;92034.47;5037494;28;20077;-82
2022/06/11 02:28:21;;;;;;;10.68;3.20;;;;;;;-146.64;100.00;92565.41;5031854;28;20028;-82
2022/06/11 02:30:49;;;;;;;15.30;2.75;;;;;;;-146.64;100.00;93096.44;5036799;28;20055;-83
2022/06/11 02:33:15;;;;;;;13.80;2.70;;;;;;;-146.64;100.00;95752.53;5053222;28;20440;-82
2022/06/11 02:35:46;;;;;;;;;;;;;;;-146.64;100.00;94424.25;5054604;28;20040;-82
2022/06/11 02:38:15;;;;;;;14.52;2.85;;;;;;;-146.64;100.00;95486.84;5068544;28;20240;-82
2022/06/11 02:40:51;;;;;;;8.65;2.45;;;;;;;-146.64;100.00;96549.72;5052413;28;20129;-82
2022/06/11 02:43:17;;;;;;;12.95;2.80;;;;;;;-146.64;100.00;95221.19;5049896;28;20043;-82
2022/06/11 02:45:43;;;;;;;14.05;3.10;;;;;;;-146.64;100.00;94955.53;5034343;28;20035;-82
2022/06/11 02:48:08;;;;;;;13.43;2.67;;;;;;;-146.64;100.00;94689.88;5070934;28;20479;-82
2022/06/11 02:50:35;;;;;;;13.67;3.30;;;;;;;-146.64;100.00;94689.88;5062064;28;20032;-82
2022/06/11 02:53:02;;;;;;;14.73;2.50;;;;;;;-146.64;100.00;96549.72;5049255;28;20036;-82
2022/06/11 02:55:28;;;;;;;10.80;3.25;;;;;;;-146.64;100.00;96018.25;5070741;28;20055;-82
2022/06/11 02:57:54;;;;;;;11.23;2.72;;;;;;;-146.64;100.00;97081.25;5051116;28;20025;-82
2022/06/11 03:00:24;;;;;;;10.40;2.53;;;;;;;-146.64;100.00;97347.03;5050674;28;20033;-82
2022/06/11 03:02:50;;;;;;;11.20;3.40;;;;;;;-146.64;100.00;98942.19;5035675;28;20025;-81
2022/06/11 03:05:18;;;;;;;22.27;3.33;;;;;;;-146.64;100.00;100803.97;5052005;28;20036;-82
2022/06/11 03:07:44;;;;;;;14.50;3.45;;;;;;;-146.64;100.00;101336.06;5031287;28;20033;-82
2022/06/11 03:10:12;;;;;;;14.43;2.50;;;;;;;-146.64;100.00;101868.22;5071292;28;20437;-82
2022/06/11 03:12:38;;;;;;;10.88;3.25;;;;;;;-146.64;100.00;103198.94;5050631;28;20036;-82
2022/06/11 03:15:03;;;;;;;19.97;3.40;;;;;;;-146.64;100.00;103198.94;5036036;28;20032;-82
2022/06/11 03:17:29;;;;;;;19.57;4.60;;;;;;;-146.64;100.00;104263.81;5051696;28;20040;-82
2022/06/11 03:19:54;;;;;;;16.70;3.10;;;;;;;-146.64;100.00;103731.34;5033214;28;20029;-81
2022/06/11 03:22:20;;;;;;;22.87;3.20;;;;;;;-146.64;100.00;103731.34;5044881;28;20109;-81
2022/06/11 03:24:45;;;;;;;16.23;3.00;;;;;;;-146.64;100.00;103731.34;5054390;28;20043;-82
2022/06/11 03:27:11;;;;;;;16.97;3.60;;;;;;;-146.64;100.00;103997.56;5036096;28;20035;-81
2022/06/11 03:29:36;;;;;;;19.13;3.73;;;;;;;-146.64;100.00;104796.38;5041737;28;20033;-80
2022/06/11 03:32:02;;;;;;;13.33;2.90;;;;;;;-146.64;100.00;105329.00;5066309;28;20047;-81
2022/06/11 03:34:27;;;;;;;14.83;3.40;;;;;;;-146.64;100.00;105062.66;5052620;28;20032;-81
2022/06/11 03:36:53;;;;;;;23.77;3.57;;;;;;;-146.64;100.00;105329.00;5053559;28;20503;-81
2022/06/11 03:39:20;;;;;;;17.10;4.10;;;;;;;-146.64;100.00;105329.00;5067514;28;20040;-81
2022/06/11 03:41:48;;;;;;;12.68;3.33;;;;;;;-146.64;100.00;106128.03;5069352;28;20055;-81
2022/06/11 03:44:13;;;;;;;17.08;3.33;;;;;;;-146.64;100.00;106927.25;5049825;28;20501;-81
2022/06/11 03:46:39;;;;;;;20.13;3.47;;;;;;;-146.64;100.00;106128.03;5054286;28;20086;-81
2022/06/11 03:49:04;;;;;;;16.60;3.60;;;;;;;-146.64;100.00;106128.03;5048216;28;20392;-81
2022/06/11 03:51:30;;;;;;;24.70;3.97;;;;;;;-146.64;100.00;106927.25;5036014;28;20033;-81
2022/06/11 03:53:55;;;;;;;17.97;3.40;;;;;;;-146.64;100.00;106927.25;5050810;28;20541;-81
2022/06/11 03:56:21;;;;;;;17.80;3.63;;;;;;;-146.64;100.00;107193.69;5070545;28;20064;-83
2022/06/11 03:58:47;;;;;;;15.83;3.83;;;;;;;-146.64;100.00;107193.69;5051979;28;20036;-82
2022/06/11 04:01:16;;;;;;;16.10;4.18;;;;;;;-146.64;100.00;107460.16;5051827;28;20502;-82
2022/06/11 04:03:44;;;;;;;16.65;4.20;;;;;;;-146.64;100.00;107193.69;5058712;28;20486;-82
2022/06/11 04:06:10;;;;;;;17.27;3.78;;;;;;;-146.64;100.00;107460.16;5069502;28;20404;-81
2022/06/11 04:08:36;;;;;;;24.80;4.57;;;;;;;-146.64;100.00;108259.63;5048104;28;20071;-81
2022/06/11 04:11:03;;;;;;;13.02;3.08;;;;;;;-146.64;100.00;108526.16;5069545;28;20426;-81
2022/06/11 04:13:30;;;;;;;25.38;4.53;;;;;;;-146.64;100.00;108259.63;5049483;28;20115;-81
2022/06/11 04:15:57;;;;;;;17.33;3.05;;;;;;;-146.64;100.00;107993.13;5053098;28;20386;-81
2022/06/11 04:18:34;;;;;;;18.02;3.00;;;;;;;-146.64;100.00;107726.63;5033915;28;20173;-81
2022/06/11 04:21:01;;;;;;;21.50;3.95;;;;;;;-146.64;100.00;107193.69;5052322;28;20120;-81
2022/06/11 04:23:29;;;;;;;22.23;3.78;;;;;;;-146.64;100.00;106927.25;5049910;28;20541;-81
2022/06/11 04:25:57;;;;;;;19.38;3.28;;;;;;;-146.64;100.00;106927.25;5051897;28;20453;-81
2022/06/11 04:28:24;;;;;;;22.77;4.28;;;;;;;-146.64;100.00;106927.25;5058017;28;20024;-81
2022/06/11 04:30:49;;;;;;;38.42;6.20;;;;;;;-146.64;100.00;105595.31;5030393;28;20036;-81
2022/06/11 04:33:14;;;;;;;26.10;3.70;;;;;;;-146.64;100.00;105595.31;5050473;28;20510;-81
2022/06/11 04:35:40;;;;;;;21.50;3.97;;;;;;;-146.64;100.00;105595.31;5053337;28;20146;-81
2022/06/11 04:38:05;;;;;;;24.27;4.13;;;;;;;-146.64;100.00;104530.09;5032753;28;20024;-81
2022/06/11 04:40:30;;;;;;;20.97;4.80;;;;;;;-146.64;100.00;103997.56;5053583;28;20502;-81
2022/06/11 04:42:56;;;;;;;23.70;4.33;;;;;;;-146.64;100.00;101336.06;5034890;28;20043;-82
2022/06/11 04:45:21;;;;;;;17.53;3.63;;;;;;;-146.64;100.00;100005.94;5068886;28;20382;-81
2022/06/11 04:47:47;;;;;;;21.03;3.80;;;;;;;-146.64;100.00;99208.09;5065538;28;20032;-81
2022/06/11 04:50:16;;;;;;;18.43;3.83;;;;;;;-146.64;100.00;99208.09;5058804;28;20043;-82
2022/06/11 04:52:41;;;;;;;22.98;4.47;;;;;;;-146.64;100.00;100271.94;5045154;28;20056;-82
2022/06/11 04:55:07;;;;;;;24.63;5.33;;;;;;;-146.64;100.00;102134.31;5049253;28;20126;-81
2022/06/11 04:57:33;;;;;;;21.93;4.60;;;;;;;-146.64;100.00;101336.06;5045421;28;20084;-81
2022/06/11 04:59:58;;;;;;;22.40;4.73;;;;;;;-146.64;100.00;100005.94;5051938;28;20029;-81
2022/06/11 05:02:24;;;;;;;21.43;4.60;;;;;;;-146.64;100.00;97347.03;5068419;28;20024;-81
2022/06/11 05:04:50;;;;;;;18.67;4.00;;;;;;;-146.64;100.00;96283.97;5055070;28;20470;-82
2022/06/11 05:07:15;;;;;;;25.87;4.63;;;;;;;-146.64;100.00;94158.66;5053244;28;20021;-80
2022/06/11 05:09:41;;;;;;;24.03;5.50;;;;;;;-146.64;100.00;90972.78;5074102;28;20120;-81
2022/06/11 05:12:07;;;;;;;26.20;5.30;;;;;;;-146.64;100.00;86198.72;5053644;28;20028;-81
2022/06/11 05:14:33;;;;;;;23.35;4.68;;;;;;;-146.64;100.00;76138.66;5055650;28;20033;-82
2022/06/11 05:16:59;;;;;;;24.40;4.40;;;;;;;-146.64;100.00;57672.94;5046620;28;20033;-82
2022/06/11 05:19:25;;;;;;;29.00;5.23;;;;;;;-146.64;100.00;36264.97;5037158;28;20273;-82
2022/06/11 05:21:51;;;;;;;22.52;4.35;;;;;;;-146.64;100.00;35782.38;5070615;28;20277;-81
2022/06/11 05:24:19;;;;;;;20.92;5.13;;;;;;;-146.64;100.00;36273.16;5053544;28;20101;-82
2022/06/11 05:26:52;;;;;;;28.20;4.88;;;;;;;-146.64;100.00;36264.97;5038739;28;20142;-82
2022/06/11 05:29:27;;;;;;;27.02;5.18;;;;;;;-146.64;100.00;36526.75;5053926;28;20032;-82
2022/06/11 05:31:52;;;;;;;22.77;5.60;;;;;;;-146.64;100.00;36397.91;5042251;28;20427;-81
2022/06/11 05:34:19;;;;;;;22.00;4.37;;;;;;;-146.64;100.00;36428.59;5057511;28;20021;-81
2022/06/11 05:36:45;;;;;;;30.13;5.10;;;;;;;-146.64;100.00;36575.84;5057029;28;20016;-80
2022/06/11 05:39:10;;;;;;;27.97;5.87;;;;;;;-146.64;100.00;36731.28;5075529;28;20035;-81
2022/06/11 05:41:38;;;;;;;25.27;5.37;;;;;;;-146.64;100.00;36678.09;5059173;28;20029;-81
2022/06/11 05:44:05;;;;;;;25.83;5.40;;;;;;;-146.64;100.00;36577.88;5066426;28;20017;-82
2022/06/11 05:46:31;;;;;;;31.52;5.35;;;;;;;-146.64;100.00;36520.63;5069952;28;20418;-82
2022/06/11 05:49:00;;;;;;;;;;;;;;;-146.64;100.00;36551.28;5042412;28;20036;-80
2022/06/11 05:51:31;;;;;;;31.70;6.32;;;;;;;-146.64;100.00;36645.38;5068655;28;19923;-81
2022/06/11 05:53:57;;;;;;;31.40;6.72;;;;;;;-146.64;100.00;35925.53;5036610;28;20029;-81
2022/06/11 05:56:22;;;;;;;28.40;6.18;;;;;;;-146.64;100.00;35402.09;5069975;28;20384;-81
2022/06/11 05:58:55;;;;;;;44.03;7.63;;;;;;;-146.64;100.00;35316.22;5055699;28;20032;-81
2022/06/11 06:01:22;;;;;;;36.08;6.50;;;;;;;-146.64;100.00;35925.53;5063139;28;20056;-80
2022/06/11 06:03:47;;;;;;;32.97;7.28;;;;;;;-146.64;100.00;36001.19;5033710;28;20426;-81
2022/06/11 06:06:12;;;;;;;31.60;5.83;;;;;;;-146.64;100.00;36052.31;5064050;28;20025;-81
2022/06/11 06:08:38;;;;;;;34.60;6.97;;;;;;;-146.64;100.00;36383.59;5048753;28;20052;-81
2022/06/11 06:11:03;;;;;;;33.23;6.40;;;;;;;-146.64;100.00;36381.53;5076149;28;20353;-82
2022/06/11 06:13:47;;;;;;;26.10;5.83;;;;;;;-146.64;100.00;36555.38;5058416;28;20115;-81
2022/06/11 06:16:20;;;;;;;34.50;6.30;;;;;;;-146.64;100.00;36665.81;5053513;28;20028;-82
2022/06/11 06:18:48;;;;;;;27.23;6.68;;;;;;;-146.64;100.00;36532.88;5064391;28;20035;-82
2022/06/11 06:21:14;;;;;;;31.83;6.95;;;;;;;-146.64;100.00;36422.44;5065935;28;20296;-82
2022/06/11 06:23:40;;;;;;;30.02;6.32;;;;;;;-146.64;100.00;36674.00;5056923;28;20021;-81
2022/06/11 06:26:06;;;;;;;28.67;5.70;;;;;;;-146.64;100.00;36608.56;5074549;28;20028;-82
2022/06/11 06:28:32;;;;;;;25.52;6.57;;;;;;;-146.64;100.00;36594.25;5050399;28;20051;-81
2022/06/11 06:30:59;;;;;;;33.13;6.32;;;;;;;-146.64;100.00;36588.09;5072861;28;20043;-81
2022/06/11 06:33:26;;;;;;;26.00;6.43;;;;;;;-146.64;100.00;36620.81;5037715;28;20032;-82
2022/06/11 06:35:51;;;;;;;32.50;6.38;;;;;;;-146.64;100.00;36678.09;5053838;28;20055;-82
2022/06/11 06:38:16;;;;;;;30.30;6.10;;;;;;;-146.64;100.00;36563.56;5051016;28;20032;-81
2022/06/11 06:40:42;;;;;;;30.53;6.27;;;;;;;-146.64;100.00;36674.00;5066965;28;20033;-82
2022/06/11 06:43:08;;;;;;;27.48;5.57;;;;;;;-146.64;100.00;36604.47;5065757;28;20036;-81
2022/06/11 06:45:33;;;;;;;31.95;6.22;;;;;;;-146.64;100.00;36637.19;5060511;28;20032;-82
2022/06/11 06:47:59;;;;;;;25.97;6.20;;;;;;;-146.64;100.00;36958.31;5037327;28;20025;-81
2022/06/11 06:50:24;;;;;;;30.43;5.37;;;;;;;-146.64;100.00;36534.94;5058685;28;20032;-81
2022/06/11 06:52:49;;;;;;;25.70;5.83;;;;;;;-146.64;100.00;36956.25;5048614;28;20033;-82
2022/06/11 06:55:15;;;;;;;33.17;5.73;;;;;;;-146.64;100.00;36641.28;5057057;28;20094;-81
2022/06/11 06:57:40;;;;;;;28.17;5.75;;;;;;;-146.64;100.00;36539.03;5071890;28;20214;-81
2022/06/11 07:00:07;;;;;;;30.93;6.00;;;;;;;-146.64;100.00;36833.53;5068595;28;21131;-81
2022/06/11 07:02:33;;;;;;;21.15;5.47;;;;;;;-146.64;100.00;36927.63;5035227;28;20096;-81
2022/06/11 07:04:59;;;;;;;22.93;4.90;;;;;;;-146.64;100.00;37101.47;5071763;28;20101;-81
2022/06/11 07:07:25;;;;;;;28.98;6.38;;;;;;;-146.64;100.00;36935.81;5078812;28;20399;-82
2022/06/11 07:09:55;;;;;;;26.63;5.55;;;;;;;-146.64;100.00;36708.78;5051922;28;20040;-82
2022/06/11 07:12:20;;;;;;;29.15;5.63;;;;;;;-146.64;100.00;36676.06;5065145;28;20029;-85
2022/06/11 07:14:46;;;;;;;26.23;5.82;;;;;;;-146.64;100.00;36674.00;5050855;28;20059;-83
2022/06/11 07:17:12;;;;;;;32.80;6.77;;;;;;;-146.64;100.00;36682.19;5065942;28;20036;-81
2022/06/11 07:19:59;;;;;;;27.23;6.15;;;;;;;-146.64;100.00;36841.72;5052103;28;20028;-82
2022/06/11 07:23:10;;;;;;;31.00;5.82;;;;;;;-146.64;100.00;36645.38;5030712;28;20066;-85
2022/06/11 07:25:38;;;;;;;23.70;5.20;;;;;;;-146.64;99.34;36459.25;5045848;28;20063;-83
2022/06/11 07:28:06;;;;;;;24.27;5.35;;;;;;;-146.64;98.79;36753.78;5052235;28;20441;-84
2022/06/11 07:30:35;;;;;;;32.97;5.10;;;;;;;-146.64;98.23;36804.91;5064363;28;20031;-84
2022/06/11 07:33:08;;;;;;;32.50;5.53;;;;;;;-146.64;98.54;36735.38;5036323;28;20440;-84
2022/06/11 07:35:37;;;;;;;26.50;5.28;;;;;;;-146.64;97.13;36721.03;5034220;28;20358;-83
2022/06/11 07:38:04;;;;;;;33.47;6.15;;;;;;;-146.64;96.72;36596.28;5036423;28;20025;-85
2022/06/11 07:40:29;;;;;;;32.47;5.90;;;;;;;-146.64;95.06;36592.19;5051488;28;20037;-85
2022/06/11 07:42:54;;;;;;;26.80;5.20;;;;;;;-146.64;96.61;36680.13;5065589;28;20029;-82
2022/06/11 07:45:20;;;;;;;24.83;4.83;;;;;;;-146.64;97.32;36862.16;5069046;28;20479;-83
2022/06/11 07:47:54;;;;;;;32.90;6.27;;;;;;;-146.64;96.59;36819.22;5047785;28;20145;-82
2022/06/11 07:50:28;;;;;;;22.55;4.65;;;;;;;-146.64;95.51;36892.84;5069123;28;20590;-85
2022/06/11 07:52:54;;;;;;;29.17;5.22;;;;;;;-146.64;95.68;37031.94;5051193;28;20021;-82
2022/06/11 07:55:20;;;;;;;25.70;6.03;;;;;;;-146.64;94.26;37062.63;5051779;28;20169;-82
2022/06/11 07:57:46;;;;;;;25.83;4.40;;;;;;;-146.64;92.25;36935.81;5048611;28;20092;-83
2022/06/11 08:00:14;;;;;;;25.73;5.63;;;;;;;-146.64;97.42;37119.88;5053606;28;20154;-83
2022/06/11 08:02:40;;;;;;;30.30;6.57;;;;;;;-146.64;100.00;37222.16;5043554;28;20039;-82
2022/06/11 08:05:06;;;;;;;21.87;4.70;;;;;;;-146.64;100.00;37344.91;5059603;28;20024;-83
2022/06/11 08:07:31;;;;;;;;;;;;;;;-146.64;100.00;37205.78;5076453;28;20399;-82
2022/06/11 08:09:59;;;;;;;28.80;4.85;;;;;;;-146.64;100.00;37144.44;5042593;28;19920;-83
2022/06/11 08:12:26;;;;;;;25.80;5.20;;;;;;;-146.64;100.00;37279.44;5069372;28;20020;-82
2022/06/11 08:14:56;;;;;;;29.65;5.40;;;;;;;-146.64;100.00;37123.97;5038176;28;20081;-82
2022/06/11 08:17:23;;;;;;;29.67;5.70;;;;;;;-146.64;98.92;37119.88;5067952;28;20441;-84
2022/06/11 08:19:48;;;;;;;27.67;5.22;;;;;;;-146.64;100.00;37119.88;5067613;28;20507;-82
2022/06/11 08:22:13;;;;;;;29.17;5.47;;;;;;;-146.64;99.10;36943.97;5049973;28;20036;-83
2022/06/11 08:24:38;;;;;;;29.40;5.40;;;;;;;-146.64;100.00;37021.72;5045059;28;20032;-82
2022/06/11 08:27:04;;;;;;;21.93;4.77;;;;;;;-146.64;100.00;36851.94;5051069;28;20024;-81
2022/06/11 08:29:29;;;;;;;30.90;6.10;;;;;;;-146.64;100.00;36952.16;5037742;28;20055;-82
2022/06/11 08:31:55;;;;;;;19.37;5.00;;;;;;;-146.64;100.00;36925.56;5050844;28;20119;-82
2022/06/11 08:34:22;;;;;;;18.67;5.00;;;;;;;-146.64;97.71;36788.53;5052486;28;20028;-84
2022/06/11 08:36:48;;;;;;;28.90;5.78;;;;;;;-146.64;99.24;36847.84;5055875;28;20032;-82
2022/06/11 08:39:13;;;;;;;30.30;6.40;;;;;;;-146.64;95.89;36939.88;5058655;28;20082;-82
2022/06/11 08:41:38;;;;;;;28.53;4.63;;;;;;;-146.64;96.36;36825.34;5074637;28;20169;-83
2022/06/11 08:44:08;;;;;;;24.23;4.57;;;;;;;-146.64;94.93;36833.53;5040876;28;20111;-82
2022/06/11 08:46:35;;;;;;;20.27;5.45;;;;;;;-146.64;95.31;36845.81;5037039;28;20024;-81
2022/06/11 08:49:04;;;;;;;19.20;4.55;;;;;;;-146.64;88.15;36874.44;5056784;28;20045;-82
2022/06/11 08:51:38;;;;;;;25.52;4.18;;;;;;;-146.64;86.30;36764.00;5072397;28;20020;-83
2022/06/11 08:54:08;;;;;;;26.65;5.80;;;;;;;-146.64;85.81;36843.75;5073195;28;20035;-83
2022/06/11 08:57:12;;;;;;;23.35;4.10;;;;;;;-146.64;84.35;36829.44;5041363;28;20077;-83
2022/06/11 09:00:06;;;;;;;23.35;4.90;;;;;;;-146.64;85.09;36800.81;5065787;28;20044;-82
2022/06/11 09:03:10;;;;;;;27.60;4.82;;;;;;;-146.64;82.60;36719.00;5042984;28;20120;-82
2022/06/11 09:05:59;;;;;;;28.10;5.72;;;;;;;-146.64;85.33;36755.81;5027032;28;20434;-82
2022/06/11 09:08:41;;;;;;;17.58;4.93;;;;;;;-146.64;83.04;36682.19;5036586;28;20056;-84
2022/06/11 09:11:45;;;;;;;27.13;4.75;;;;;;;-146.64;84.32;36780.34;5057197;28;20101;-82
2022/06/11 09:14:23;;;;;;;30.98;5.30;;;;;;;-146.64;87.17;36788.53;5049537;28;20044;-83
2022/06/11 09:17:11;;;;;;;28.27;4.70;;;;;;;-146.64;84.94;36849.91;5069588;28;20100;-81
2022/06/11 09:19:39;;;;;;;22.52;5.68;;;;;;;-146.64;86.48;36743.53;5075448;28;20032;-81
2022/06/11 09:22:36;;;;;;;23.27;4.47;;;;;;;-146.64;86.60;36884.66;5071987;28;20037;-82
2022/06/11 09:25:20;;;;;;;25.65;5.55;;;;;;;-146.64;88.17;36841.72;5051931;28;20036;-82
2022/06/11 09:27:51;;;;;;;22.23;5.05;;;;;;;-146.64;87.13;36929.66;5073009;28;20063;-82
2022/06/11 09:30:19;;;;;;;30.50;5.65;;;;;;;-146.64;91.20;36986.94;5068683;28;20060;-83
2022/06/11 09:32:53;;;;;;;23.05;4.70;;;;;;;-146.64;92.87;36911.25;5039161;28;20043;-82
2022/06/11 09:35:21;;;;;;;29.70;5.20;;;;;;;-146.64;92.95;36759.91;5056297;28;20043;-82
2022/06/11 09:38:09;;;;;;;27.52;5.72;;;;;;;-146.64;92.13;36997.16;5066780;28;20128;-82
2022/06/11 09:40:40;;;;;;;26.02;4.60;;;;;;;-146.64;89.63;37209.88;5068207;28;20088;-82
2022/06/11 09:43:37;;;;;;;25.58;5.20;;;;;;;-146.64;89.19;37254.88;5054989;28;20016;-82
2022/06/11 09:46:20;;;;;;;20.48;4.45;;;;;;;-146.64;86.10;37013.53;5032655;28;20041;-83
2022/06/11 09:48:54;;;;;;;28.52;5.05;;;;;;;-146.64;85.01;36849.91;5056870;28;20028;-82
2022/06/11 09:51:38;;;;;;;19.35;4.70;;;;;;;-146.64;80.64;36706.72;5028732;28;20028;-81
2022/06/11 09:54:25;;;;;;;23.98;4.35;;;;;;;-146.64;77.92;36686.28;5067088;28;20033;-84
2022/06/11 09:56:53;;;;;;;21.70;5.18;;;;;;;-146.64;74.55;36710.81;5051395;28;20035;-83
2022/06/11 09:59:29;;;;;;;20.48;3.72;;;;;;;-146.64;72.29;36690.38;5049488;28;20399;-82
2022/06/11 10:01:59;;;;;;;26.33;4.40;;;;;;;-146.64;72.11;36737.41;5065461;28;20062;-83
2022/06/11 10:04:29;;;;;;;24.35;5.03;;;;;;;-146.64;72.04;36751.72;5070005;28;20025;-82
2022/06/11 10:07:02;;;;;;;19.02;4.15;;;;;;;-146.64;69.90;36778.31;5029833;28;20054;-82
2022/06/11 10:09:30;;;;;;;16.85;3.70;;;;;;;-146.64;70.32;36682.19;5056129;28;20025;-81
2022/06/11 10:12:31;;;;;;;26.60;4.80;;;;;;;-146.64;71.07;36669.91;5055823;28;20029;-81
2022/06/11 10:15:13;;;;;;;16.80;3.95;;;;;;;-146.64;71.35;36624.91;5049524;28;20037;-81
2022/06/11 10:18:04;;;;;;;16.65;3.60;;;;;;;-146.64;71.86;36641.28;5034869;28;20025;-81
2022/06/11 10:20:38;;;;;;;25.00;4.82;;;;;;;-146.64;68.27;36604.47;5070717;28;20091;-82
2022/06/11 10:23:45;;;;;;;22.45;3.92;;;;;;;-146.64;71.25;36565.59;5048998;28;20033;-82
2022/06/11 10:26:16;;;;;;;19.50;4.18;;;;;;;-146.64;70.38;36416.31;5057526;28;20044;-82
2022/06/11 10:28:44;;;;;;;20.85;5.60;;;;;;;-146.64;73.21;36309.97;5041501;28;20037;-82
2022/06/11 10:31:19;;;;;;;22.15;4.28;;;;;;;-146.64;72.71;36690.38;5048297;28;20024;-81
2022/06/11 10:33:51;;;;;;;25.10;4.28;;;;;;;-146.64;67.70;36592.19;5036876;28;20021;-79
2022/06/11 10:36:21;;;;;;;21.45;4.43;;;;;;;-146.64;67.84;36404.03;5052606;28;20153;-81
2022/06/11 10:38:52;;;;;;;23.15;5.00;;;;;;;-146.64;68.54;36494.03;5071876;28;20036;-81
2022/06/11 10:41:27;;;;;;;22.25;4.28;;;;;;;-146.64;66.60;36453.13;5074297;28;20050;-81
2022/06/11 10:44:14;;;;;;;17.45;4.00;;;;;;;-146.64;63.99;36522.66;5068552;28;20127;-82
2022/06/11 10:46:39;;;;;;;17.77;4.30;;;;;;;-146.64;64.67;36385.63;5042112;28;20029;-82
2022/06/11 10:49:11;;;;;;;16.87;3.97;;;;;;;-146.64;63.73;36483.81;5064663;28;20054;-83
2022/06/11 10:51:37;;;;;;;26.23;4.78;;;;;;;-146.64;65.22;36457.22;5060918;28;20032;-80
2022/06/11 10:54:23;;;;;;;23.08;4.22;;;;;;;-146.64;65.96;36250.66;5068766;28;20032;-83
2022/06/11 10:56:52;;;;;;;15.27;3.60;;;;;;;-146.64;64.24;36328.38;5067649;28;20094;-82
2022/06/11 10:59:27;;;;;;;17.95;3.97;;;;;;;-146.64;64.36;36330.41;5036507;28;20551;-81
2022/06/11 11:02:02;;;;;;;16.80;3.50;;;;;;;-146.64;63.54;36379.50;5048838;28;20045;-81
2022/06/11 11:04:41;;;;;;;18.77;3.33;;;;;;;-146.64;66.79;36817.16;5042154;28;20480;-83
2022/06/11 11:07:16;;;;;;;16.08;4.22;;;;;;;-146.64;65.78;36800.81;5034247;28;20024;-79
2022/06/11 11:09:42;;;;;;;16.90;3.53;;;;;;;-146.64;65.82;36950.13;5034755;28;20472;-79
2022/06/11 11:12:20;;;;;;;25.75;4.30;;;;;;;-146.64;69.05;36661.72;5049286;28;20030;-82
2022/06/11 11:14:46;;;;;;;19.20;3.45;;;;;;;-146.64;68.51;36465.41;5066660;28;20044;-81
2022/06/11 11:17:20;;;;;;;17.30;4.13;;;;;;;-146.64;65.70;36408.13;5045076;28;20757;-79
2022/06/11 11:20:29;;;;;;;20.13;4.20;;;;;;;-146.64;66.34;36698.53;5051394;28;20487;-80